createdAt,value
2017-05-29T00:01:56.151Z,77.00
2017-05-29T00:04:26.166Z,76.40
2017-05-29T00:06:57.308Z,76.20
2017-05-29T00:12:02.742Z,75.70
2017-05-29T00:14:32.626Z,75.90
2017-05-29T00:17:06.936Z,76.70
2017-05-29T00:19:36.201Z,76.70
2017-05-29T00:22:06.241Z,77.60
2017-05-29T00:24:38.553Z,77.30
2017-05-29T00:27:08.896Z,76.90
2017-05-29T00:29:38.148Z,76.40
2017-05-29T00:32:07.405Z,76.00
2017-05-29T00:34:36.291Z,75.90
2017-05-29T00:37:05.901Z,76.30
2017-05-29T00:39:35.609Z,76.10
2017-05-29T00:42:04.833Z,76.40
2017-05-29T00:44:36.252Z,76.40
2017-05-29T00:47:06.279Z,77.00
2017-05-29T00:49:38.849Z,76.90
2017-05-29T00:52:08.053Z,77.40
2017-05-29T00:54:37.463Z,77.20
2017-05-29T00:57:10.529Z,76.70
2017-05-29T00:59:39.428Z,76.60
2017-05-29T01:02:09.490Z,76.80
2017-05-29T01:04:39.649Z,76.50
2017-05-29T01:07:08.961Z,76.60
2017-05-29T01:09:39.263Z,76.70
2017-05-29T01:12:08.177Z,76.80
2017-05-29T01:14:37.428Z,76.90
2017-05-29T01:17:08.394Z,76.70
2017-05-29T01:19:38.100Z,76.50
2017-05-29T01:22:08.548Z,76.70
2017-05-29T01:24:38.254Z,76.80
2017-05-29T01:27:07.450Z,76.80
2017-05-29T01:29:37.064Z,77.00
2017-05-29T01:32:07.118Z,76.80
2017-05-29T01:34:38.370Z,76.80
2017-05-29T01:37:07.864Z,76.90
2017-05-29T01:39:37.098Z,77.10
2017-05-29T01:42:06.830Z,77.10
2017-05-29T01:44:36.281Z,77.10
2017-05-29T01:47:06.049Z,77.30
2017-05-29T01:49:34.913Z,77.50
2017-05-29T01:52:03.836Z,77.30
2017-05-29T01:54:35.714Z,77.10
2017-05-29T01:57:05.469Z,77.30
2017-05-29T01:59:34.793Z,77.10
2017-05-29T02:02:04.660Z,77.20
2017-05-29T02:04:34.946Z,77.80
2017-05-29T02:07:04.809Z,77.70
2017-05-29T02:09:35.062Z,78.40
2017-05-29T02:12:04.521Z,78.50
2017-05-29T02:14:34.787Z,78.80
2017-05-29T02:17:05.044Z,79.30
2017-05-29T02:19:34.570Z,79.00
2017-05-29T02:22:03.443Z,79.30
2017-05-29T02:24:33.009Z,79.20
2017-05-29T02:27:02.215Z,79.20
2017-05-29T02:29:30.774Z,79.30
2017-05-29T02:32:03.466Z,79.50
2017-05-29T02:34:34.098Z,79.50
2017-05-29T02:37:03.364Z,79.30
2017-05-29T02:39:33.777Z,79.30
2017-05-29T02:42:04.760Z,79.20
2017-05-29T02:44:33.938Z,79.20
2017-05-29T02:47:03.904Z,79.40
2017-05-29T02:49:38.603Z,80.10
2017-05-29T02:52:07.547Z,80.30
2017-05-29T02:54:39.142Z,80.20
2017-05-29T02:57:08.404Z,80.10
2017-05-29T02:59:37.540Z,80.30
2017-05-29T03:02:09.497Z,80.30
2017-05-29T03:04:38.619Z,80.60
2017-05-29T03:07:07.855Z,80.40
2017-05-29T03:09:39.258Z,79.70
2017-05-29T03:12:08.179Z,81.10
2017-05-29T03:14:37.047Z,80.90
2017-05-29T03:17:08.533Z,79.70
2017-05-29T03:19:42.182Z,79.60
2017-05-29T03:22:15.179Z,79.40
2017-05-29T03:24:47.465Z,79.50
2017-05-29T03:27:20.673Z,79.80
2017-05-29T03:29:50.685Z,80.00
2017-05-29T03:32:22.363Z,80.40
2017-05-29T03:34:51.623Z,80.60
2017-05-29T03:37:24.527Z,80.70
2017-05-29T03:39:53.717Z,81.00
2017-05-29T03:42:24.091Z,80.90
2017-05-29T03:44:53.786Z,80.70
2017-05-29T03:47:25.660Z,81.10
2017-05-29T03:49:55.685Z,80.60
2017-05-29T03:52:26.410Z,80.70
2017-05-29T03:54:56.748Z,80.30
2017-05-29T03:57:28.303Z,80.10
2017-05-29T03:59:58.711Z,80.20
2017-05-29T04:02:28.727Z,79.90
2017-05-29T04:05:03.256Z,80.40
2017-05-29T04:07:34.470Z,80.50
2017-05-29T04:10:04.519Z,80.80
2017-05-29T04:12:36.106Z,81.30
2017-05-29T04:15:05.462Z,81.70
2017-05-29T04:17:36.312Z,81.40
2017-05-29T04:20:06.356Z,81.60
2017-05-29T04:22:36.644Z,81.50
2017-05-29T04:25:06.452Z,81.40
2017-05-29T04:27:35.029Z,81.50
2017-05-29T04:30:04.986Z,82.10
2017-05-29T04:32:34.565Z,82.20
2017-05-29T04:35:03.857Z,82.20
2017-05-29T04:37:33.819Z,82.10
2017-05-29T04:40:03.485Z,82.00
2017-05-29T04:42:35.693Z,81.80
2017-05-29T04:45:09.034Z,82.70
2017-05-29T04:47:37.791Z,81.50
2017-05-29T04:50:09.373Z,81.70
2017-05-29T04:52:39.138Z,82.00
2017-05-29T04:55:09.751Z,81.70
2017-05-29T04:57:39.437Z,81.50
2017-05-29T05:00:10.347Z,81.70
2017-05-29T05:02:41.092Z,81.30
2017-05-29T05:05:12.139Z,81.10
2017-05-29T05:07:41.826Z,81.10
2017-05-29T05:10:14.161Z,81.10
2017-05-29T05:12:44.159Z,80.70
2017-05-29T05:15:14.758Z,80.90
2017-05-29T05:17:49.791Z,81.50
2017-05-29T05:20:21.987Z,81.10
2017-05-29T05:22:51.805Z,80.90
2017-05-29T05:25:21.826Z,81.30
2017-05-29T05:27:50.816Z,81.00
2017-05-29T05:30:21.408Z,81.00
2017-05-29T05:32:51.325Z,81.00
2017-05-29T05:35:27.801Z,80.20
2017-05-29T05:37:56.993Z,80.60
2017-05-29T05:40:31.457Z,81.10
2017-05-29T05:43:01.471Z,80.10
2017-05-29T05:45:34.411Z,79.90
2017-05-29T05:48:04.434Z,79.60
2017-05-29T05:53:08.964Z,79.50
2017-05-29T05:55:39.078Z,79.60
2017-05-29T05:58:08.890Z,78.80
2017-05-29T06:00:40.148Z,78.50
2017-05-29T06:03:09.654Z,78.60
2017-05-29T06:05:40.136Z,78.50
2017-05-29T06:08:12.572Z,78.50
2017-05-29T06:10:42.249Z,78.20
2017-05-29T06:13:11.468Z,78.80
2017-05-29T06:15:40.672Z,78.00
2017-05-29T06:18:09.620Z,77.80
2017-05-29T06:20:40.784Z,77.60
2017-05-29T06:23:10.636Z,77.20
2017-05-29T06:25:40.911Z,77.10
2017-05-29T06:28:15.962Z,77.10
2017-05-29T06:30:47.993Z,76.60
2017-05-29T06:33:17.252Z,76.50
2017-05-29T06:35:47.312Z,76.20
2017-05-29T06:38:16.520Z,75.70
2017-05-29T06:40:46.428Z,76.00
2017-05-29T06:43:16.247Z,76.20
2017-05-29T06:45:46.111Z,76.60
2017-05-29T06:48:15.789Z,76.00
2017-05-29T06:50:45.289Z,76.00
2017-05-29T06:53:17.228Z,75.60
2017-05-29T06:55:47.760Z,75.10
2017-05-29T06:58:20.282Z,75.10
2017-05-29T07:00:49.796Z,75.50
2017-05-29T07:03:19.550Z,74.80
2017-05-29T07:05:48.847Z,74.70
2017-05-29T07:08:18.850Z,75.10
2017-05-29T07:10:48.994Z,75.00
2017-05-29T07:13:18.663Z,74.70
2017-05-29T07:15:47.685Z,74.20
2017-05-29T07:18:17.689Z,73.70
2017-05-29T07:20:48.637Z,73.40
2017-05-29T07:23:19.535Z,73.40
2017-05-29T07:25:49.407Z,73.20
2017-05-29T07:28:21.189Z,72.70
2017-05-29T07:30:51.698Z,72.60
2017-05-29T07:33:21.025Z,72.00
2017-05-29T07:35:53.243Z,71.50
2017-05-29T07:38:22.474Z,72.10
2017-05-29T07:40:51.719Z,71.40
2017-05-29T07:43:22.369Z,71.60
2017-05-29T07:45:53.345Z,71.30
2017-05-29T07:48:24.367Z,70.80
2017-05-29T07:50:53.273Z,70.60
2017-05-29T07:53:22.477Z,70.20
2017-05-29T07:55:53.065Z,69.90
2017-05-29T07:58:22.003Z,69.70
2017-05-29T08:00:52.671Z,69.60
2017-05-29T08:03:24.253Z,69.20
2017-05-29T08:05:54.912Z,68.80
2017-05-29T08:08:24.962Z,69.00
2017-05-29T08:10:55.617Z,68.20
2017-05-29T08:13:25.712Z,67.40
2017-05-29T08:15:55.485Z,66.80
2017-05-29T08:18:26.233Z,66.90
2017-05-29T08:20:57.523Z,66.50
2017-05-29T08:23:28.914Z,65.60
2017-05-29T08:25:58.629Z,65.60
2017-05-29T08:28:27.749Z,65.70
2017-05-29T08:30:56.957Z,64.70
2017-05-29T08:33:29.593Z,63.80
2017-05-29T08:35:59.477Z,63.90
2017-05-29T08:38:28.708Z,63.70
2017-05-29T08:40:57.982Z,63.80
2017-05-29T08:43:30.272Z,62.20
2017-05-29T08:46:00.350Z,62.20
2017-05-29T08:48:29.421Z,61.50
2017-05-29T08:51:02.098Z,60.70
2017-05-29T08:53:31.541Z,60.10
2017-05-29T08:56:01.509Z,60.40
2017-05-29T08:58:31.759Z,60.10
2017-05-29T09:01:01.923Z,58.40
2017-05-29T09:03:32.789Z,58.30
2017-05-29T09:06:02.126Z,57.80
2017-05-29T09:08:32.343Z,56.80
2017-05-29T09:11:08.433Z,56.20
2017-05-29T09:13:37.678Z,55.20
2017-05-29T09:16:06.906Z,55.40
2017-05-29T09:18:36.345Z,54.40
2017-05-29T09:21:05.604Z,54.80
2017-05-29T09:23:36.785Z,54.40
2017-05-29T09:26:09.310Z,53.70
2017-05-29T09:28:38.487Z,52.80
2017-05-29T09:31:07.743Z,53.40
2017-05-29T09:33:36.901Z,53.20
2017-05-29T09:36:06.153Z,53.20
2017-05-29T09:38:36.937Z,53.10
2017-05-29T09:41:06.201Z,51.90
2017-05-29T09:43:36.969Z,51.30
2017-05-29T09:46:10.365Z,50.40
2017-05-29T09:48:40.541Z,51.30
2017-05-29T09:51:11.417Z,50.20
2017-05-29T09:53:40.654Z,49.80
2017-05-29T09:56:12.176Z,50.10
2017-05-29T09:58:45.253Z,49.10
2017-05-29T10:03:51.840Z,49.70
2017-05-29T10:06:20.729Z,47.50
2017-05-29T10:08:50.998Z,48.00
2017-05-29T10:11:20.986Z,48.00
2017-05-29T10:13:50.178Z,47.80
2017-05-29T10:16:19.066Z,47.30
2017-05-29T10:18:49.852Z,47.10
2017-05-29T10:21:19.501Z,46.80
2017-05-29T10:23:49.391Z,47.00
2017-05-29T10:26:19.564Z,46.80
2017-05-29T10:28:48.762Z,47.30
2017-05-29T10:31:18.771Z,46.90
2017-05-29T10:33:48.962Z,47.80
2017-05-29T10:36:23.930Z,48.20
2017-05-29T10:38:54.774Z,47.30
2017-05-29T10:41:25.184Z,48.40
2017-05-29T10:43:55.288Z,48.20
2017-05-29T10:46:24.872Z,48.60
2017-05-29T10:48:56.020Z,47.60
2017-05-29T10:51:25.258Z,47.50
2017-05-29T10:53:54.859Z,48.90
2017-05-29T10:56:25.061Z,47.90
2017-05-29T10:58:54.447Z,47.30
2017-05-29T11:01:25.486Z,47.50
2017-05-29T11:03:54.664Z,47.50
2017-05-29T11:06:23.883Z,45.20
2017-05-29T11:08:53.273Z,42.10
2017-05-29T11:11:22.513Z,41.00
2017-05-29T11:13:53.301Z,39.80
2017-05-29T11:16:25.787Z,41.10
2017-05-29T11:18:55.237Z,41.10
2017-05-29T11:21:25.014Z,42.30
2017-05-29T11:23:56.187Z,39.80
2017-05-29T11:26:25.347Z,38.50
2017-05-29T11:28:54.435Z,37.40
2017-05-29T11:31:23.863Z,42.00
2017-05-29T11:33:53.537Z,43.30
2017-05-29T11:36:22.849Z,43.50
2017-05-29T11:38:52.869Z,43.70
2017-05-29T11:41:22.939Z,45.00
2017-05-29T11:43:53.160Z,45.00
2017-05-29T11:46:22.992Z,41.40
2017-05-29T11:48:52.891Z,40.80
2017-05-29T11:51:23.527Z,39.00
2017-05-29T11:53:54.364Z,39.50
2017-05-29T11:56:24.917Z,38.50
2017-05-29T11:58:54.242Z,39.50
2017-05-29T12:01:25.298Z,40.40
2017-05-29T12:03:54.904Z,37.70
2017-05-29T12:06:24.156Z,39.30
2017-05-29T12:08:54.626Z,39.10
2017-05-29T12:11:24.382Z,36.80
2017-05-29T12:13:54.114Z,37.20
2017-05-29T12:16:25.640Z,36.10
2017-05-29T12:18:56.693Z,36.20
2017-05-29T12:21:26.258Z,35.30
2017-05-29T12:23:56.728Z,35.10
2017-05-29T12:26:29.726Z,34.00
2017-05-29T12:28:59.688Z,34.80
2017-05-29T12:31:28.928Z,34.20
2017-05-29T12:33:58.289Z,34.20
2017-05-29T12:36:27.464Z,33.80
2017-05-29T12:38:56.512Z,32.60
2017-05-29T12:41:26.995Z,33.80
2017-05-29T12:43:55.402Z,34.00
2017-05-29T12:46:24.257Z,36.80
2017-05-29T12:48:53.914Z,39.40
2017-05-29T12:51:23.884Z,40.40
2017-05-29T12:53:54.097Z,41.30
2017-05-29T12:56:23.172Z,40.80
2017-05-29T12:58:52.352Z,39.50
2017-05-29T13:01:22.360Z,41.40
2017-05-29T13:03:51.552Z,41.20
2017-05-29T13:06:23.367Z,42.30
2017-05-29T13:08:52.739Z,43.60
2017-05-29T13:11:22.100Z,42.60
2017-05-29T13:13:51.280Z,42.20
2017-05-29T13:16:20.511Z,42.50
2017-05-29T13:18:49.789Z,42.80
2017-05-29T13:21:19.897Z,41.40
2017-05-29T13:23:49.127Z,40.90
2017-05-29T13:26:18.363Z,40.30
2017-05-29T13:28:47.560Z,41.90
2017-05-29T13:31:17.931Z,42.40
2017-05-29T13:33:51.737Z,43.30
2017-05-29T13:36:21.723Z,43.50
2017-05-29T13:38:50.932Z,40.40
2017-05-29T13:41:20.260Z,39.80
2017-05-29T13:43:50.424Z,41.80
2017-05-29T13:46:20.902Z,43.00
2017-05-29T13:48:50.222Z,43.30
2017-05-29T13:51:22.438Z,43.70
2017-05-29T13:53:53.474Z,44.30
2017-05-29T13:56:26.691Z,43.70
2017-05-29T13:58:56.911Z,43.20
2017-05-29T14:01:26.113Z,43.60
2017-05-29T14:03:59.656Z,43.70
2017-05-29T14:06:28.875Z,41.80
2017-05-29T14:08:58.201Z,42.70
2017-05-29T14:11:27.409Z,42.00
2017-05-29T14:13:59.667Z,42.80
2017-05-29T14:16:28.903Z,42.10
2017-05-29T14:18:58.154Z,42.20
2017-05-29T14:21:27.407Z,42.30
2017-05-29T14:23:58.840Z,42.70
2017-05-29T14:26:27.959Z,44.10
2017-05-29T14:28:57.185Z,40.90
2017-05-29T14:31:26.986Z,40.40
2017-05-29T14:33:56.352Z,40.10
2017-05-29T14:36:25.585Z,40.80
2017-05-29T14:38:57.286Z,41.40
2017-05-29T14:41:27.791Z,42.30
2017-05-29T14:43:56.986Z,40.60
2017-05-29T14:46:26.185Z,40.90
2017-05-29T14:48:55.481Z,40.80
2017-05-29T14:51:24.361Z,42.00
2017-05-29T14:53:53.606Z,41.00
2017-05-29T14:56:22.867Z,40.80
2017-05-29T14:58:52.068Z,41.60
2017-05-29T15:01:24.023Z,39.40
2017-05-29T15:03:53.016Z,40.60
2017-05-29T15:06:22.617Z,41.00
2017-05-29T15:08:51.410Z,41.50
2017-05-29T15:11:21.397Z,36.20
2017-05-29T15:13:51.510Z,36.90
2017-05-29T15:16:20.718Z,39.00
2017-05-29T15:18:51.272Z,39.50
2017-05-29T15:21:21.869Z,38.40
2017-05-29T15:23:53.237Z,39.50
2017-05-29T15:26:22.724Z,40.50
2017-05-29T15:28:51.706Z,41.30
2017-05-29T15:31:21.632Z,41.10
2017-05-29T15:33:51.881Z,39.70
2017-05-29T15:36:21.100Z,36.80
2017-05-29T15:38:52.607Z,34.10
2017-05-29T15:41:21.159Z,36.10
2017-05-29T15:43:50.373Z,37.70
2017-05-29T15:46:19.533Z,37.50
2017-05-29T15:48:48.613Z,35.70
2017-05-29T15:51:17.469Z,36.90
2017-05-29T15:53:48.315Z,36.50
2017-05-29T15:56:17.574Z,37.20
2017-05-29T15:58:47.215Z,39.30
2017-05-29T16:01:16.724Z,39.90
2017-05-29T16:03:46.939Z,40.30
2017-05-29T16:06:16.128Z,40.00
2017-05-29T16:08:45.742Z,41.40
2017-05-29T16:11:16.924Z,41.60
2017-05-29T16:13:47.917Z,40.80
2017-05-29T16:16:17.426Z,42.00
2017-05-29T16:18:47.450Z,42.60
2017-05-29T16:21:18.116Z,43.60
2017-05-29T16:23:47.359Z,44.20
2017-05-29T16:26:17.245Z,45.00
2017-05-29T16:28:46.456Z,45.40
2017-05-29T16:31:15.663Z,45.90
2017-05-29T16:33:44.909Z,46.20
2017-05-29T16:36:14.172Z,46.30
2017-05-29T16:38:44.059Z,47.00
2017-05-29T16:41:13.285Z,47.10
2017-05-29T16:43:42.161Z,47.10
2017-05-29T16:46:11.357Z,48.40
2017-05-29T16:48:40.672Z,49.10
2017-05-29T16:51:10.512Z,49.10
2017-05-29T16:53:39.830Z,49.10
2017-05-29T16:56:10.005Z,49.40
2017-05-29T16:58:39.252Z,49.70
2017-05-29T17:01:08.685Z,49.90
2017-05-29T17:03:39.147Z,51.00
2017-05-29T17:06:08.928Z,51.50
2017-05-29T17:08:38.036Z,51.10
2017-05-29T17:11:07.147Z,51.80
2017-05-29T17:13:36.393Z,52.00
2017-05-29T17:16:06.593Z,51.80
2017-05-29T17:18:35.861Z,51.70
2017-05-29T17:21:05.685Z,52.00
2017-05-29T17:23:34.889Z,51.40
2017-05-29T17:26:04.110Z,51.70
2017-05-29T17:28:34.228Z,52.20
2017-05-29T17:31:03.448Z,51.90
2017-05-29T17:33:33.063Z,51.80
2017-05-29T17:36:03.956Z,52.50
2017-05-29T17:38:33.508Z,52.40
2017-05-29T17:41:03.539Z,50.70
2017-05-29T17:43:32.955Z,50.60
2017-05-29T17:46:02.180Z,49.90
2017-05-29T17:48:31.387Z,50.00
2017-05-29T17:51:00.802Z,50.10
2017-05-29T17:53:30.167Z,49.70
2017-05-29T17:56:01.226Z,50.00
2017-05-29T17:58:30.566Z,50.20
2017-05-29T18:01:00.165Z,50.30
2017-05-29T18:03:29.373Z,50.10
2017-05-29T18:05:58.605Z,50.60
2017-05-29T18:08:27.857Z,50.30
2017-05-29T18:10:57.090Z,51.40
2017-05-29T18:13:26.354Z,54.20
2017-05-29T18:15:56.685Z,55.10
2017-05-29T18:18:26.828Z,55.40
2017-05-29T18:20:56.811Z,55.00
2017-05-29T18:23:27.143Z,54.40
2017-05-29T18:25:57.142Z,54.00
2017-05-29T18:28:30.366Z,54.00
2017-05-29T18:30:58.837Z,54.00
2017-05-29T18:33:28.504Z,54.20
2017-05-29T18:35:58.596Z,54.40
2017-05-29T18:38:27.813Z,53.60
2017-05-29T18:40:57.656Z,52.10
2017-05-29T18:43:27.362Z,52.20
2017-05-29T18:45:56.664Z,54.00
2017-05-29T18:48:26.635Z,53.50
2017-05-29T18:50:55.841Z,53.90
2017-05-29T18:53:25.050Z,53.80
2017-05-29T18:55:54.315Z,53.80
2017-05-29T18:58:23.570Z,53.80
2017-05-29T19:00:53.220Z,54.60
2017-05-29T19:03:23.242Z,54.70
2017-05-29T19:05:54.042Z,55.00
2017-05-29T19:08:23.289Z,55.10
2017-05-29T19:10:52.488Z,55.50
2017-05-29T19:13:21.705Z,55.30
2017-05-29T19:15:51.513Z,54.60
2017-05-29T19:18:21.321Z,54.00
2017-05-29T19:20:51.939Z,52.80
2017-05-29T19:23:21.132Z,53.70
2017-05-29T19:25:50.786Z,53.80
2017-05-29T19:28:20.247Z,55.00
2017-05-29T19:30:50.261Z,55.40
2017-05-29T19:33:19.440Z,54.70
2017-05-29T19:35:48.650Z,53.50
2017-05-29T19:38:19.117Z,54.20
2017-05-29T19:40:49.026Z,54.40
2017-05-29T19:43:18.627Z,54.20
2017-05-29T19:45:48.132Z,53.70
2017-05-29T19:48:17.345Z,53.70
2017-05-29T19:50:46.657Z,54.40
2017-05-29T19:53:16.747Z,54.20
2017-05-29T19:55:45.943Z,55.00
2017-05-29T19:58:15.245Z,55.00
2017-05-29T20:00:45.669Z,54.80
2017-05-29T20:03:14.880Z,55.20
2017-05-29T20:05:43.920Z,54.70
2017-05-29T20:08:13.120Z,56.00
2017-05-29T20:10:42.324Z,55.50
2017-05-29T20:13:11.855Z,54.80
2017-05-29T20:15:42.890Z,55.00
2017-05-29T20:18:12.132Z,55.40
2017-05-29T20:20:41.357Z,55.30
2017-05-29T20:23:10.573Z,55.60
2017-05-29T20:25:40.466Z,55.80
2017-05-29T20:28:10.379Z,55.50
2017-05-29T20:30:39.561Z,55.40
2017-05-29T20:33:08.748Z,55.40
2017-05-29T20:35:38.413Z,55.80
2017-05-29T20:38:08.256Z,56.20
2017-05-29T20:40:37.460Z,56.50
2017-05-29T20:43:07.394Z,57.10
2017-05-29T20:45:36.600Z,56.90
2017-05-29T20:48:05.806Z,57.40
2017-05-29T20:50:35.022Z,57.70
2017-05-29T20:53:04.206Z,57.60
2017-05-29T20:55:34.425Z,57.40
2017-05-29T20:58:03.613Z,57.80
2017-05-29T21:00:32.893Z,57.90
2017-05-29T21:03:02.764Z,58.50
2017-05-29T21:05:31.965Z,57.90
2017-05-29T21:08:02.846Z,57.90
2017-05-29T21:10:32.025Z,58.00
2017-05-29T21:13:01.272Z,58.40
2017-05-29T21:15:30.481Z,57.80
2017-05-29T21:17:59.684Z,57.90
2017-05-29T21:20:30.489Z,57.90
2017-05-29T21:22:59.682Z,58.40
2017-05-29T21:25:28.905Z,58.10
2017-05-29T21:27:58.105Z,58.30
2017-05-29T21:30:27.317Z,58.60
2017-05-29T21:32:57.370Z,58.60
2017-05-29T21:35:26.557Z,58.70
2017-05-29T21:37:55.753Z,59.40
2017-05-29T21:40:24.974Z,58.80
2017-05-29T21:42:53.856Z,58.80
2017-05-29T21:45:24.018Z,59.10
2017-05-29T21:47:53.237Z,59.50
2017-05-29T21:50:22.425Z,59.60
2017-05-29T21:52:51.726Z,59.60
2017-05-29T21:55:21.715Z,59.70
2017-05-29T21:57:51.622Z,59.50
2017-05-29T22:00:20.831Z,59.20
2017-05-29T22:02:50.029Z,59.20
2017-05-29T22:05:19.627Z,59.40
2017-05-29T22:07:48.858Z,59.60
2017-05-29T22:10:18.042Z,60.20
2017-05-29T22:12:47.302Z,60.40
2017-05-29T22:15:16.502Z,60.60
2017-05-29T22:17:45.749Z,61.20
2017-05-29T22:20:14.983Z,61.30
2017-05-29T22:22:44.242Z,61.70
2017-05-29T22:25:13.426Z,62.00
2017-05-29T22:27:43.450Z,62.30
2017-05-29T22:30:12.637Z,63.30
2017-05-29T22:32:41.845Z,63.30
2017-05-29T22:35:11.069Z,63.70
2017-05-29T22:37:40.273Z,63.70
2017-05-29T22:40:09.472Z,63.70
2017-05-29T22:42:38.739Z,64.10
2017-05-29T22:45:07.928Z,63.90
2017-05-29T22:47:37.201Z,63.90
2017-05-29T22:50:06.404Z,63.90
2017-05-29T22:52:36.498Z,63.90
2017-05-29T22:55:05.732Z,64.30
2017-05-29T22:57:35.203Z,64.50
2017-05-29T23:00:04.057Z,65.00
2017-05-29T23:02:32.961Z,65.30
2017-05-29T23:05:02.219Z,65.70
2017-05-29T23:07:31.470Z,66.00
2017-05-29T23:10:00.670Z,66.30
2017-05-29T23:12:29.904Z,67.40
2017-05-29T23:15:00.056Z,67.80
2017-05-29T23:17:29.286Z,68.10
2017-05-29T23:19:59.410Z,68.10
2017-05-29T23:22:28.624Z,68.50
2017-05-29T23:24:58.519Z,68.40
2017-05-29T23:27:27.757Z,68.50
2017-05-29T23:29:56.960Z,68.80
2017-05-29T23:32:25.805Z,70.50
2017-05-29T23:34:55.037Z,71.50
2017-05-29T23:37:24.230Z,72.20
2017-05-29T23:39:53.493Z,72.90
2017-05-29T23:42:22.737Z,73.30
2017-05-29T23:44:52.263Z,73.60
2017-05-29T23:47:21.452Z,73.90
2017-05-29T23:49:50.688Z,74.50
2017-05-29T23:52:19.911Z,74.30
2017-05-29T23:54:49.113Z,74.70
2017-05-29T23:57:18.340Z,74.40
2017-05-29T23:59:47.553Z,74.70
